sensor_id;sensor_type;location;lat;lon;timestamp;pressure;altitude;pressure_sealevel;temperature;humidity
70916;BME280;58557;50.982;-3.222;2023-04-28T00:00:36;100090.22;;;12.29;83.71
70916;BME280;58557;50.982;-3.222;2023-04-28T00:03:02;100085.53;;;13.16;82.58
70916;BME280;58557;50.982;-3.222;2023-04-28T00:05:27;100079.25;;;14.59;75.64
70916;BME280;58557;50.982;-3.222;2023-04-28T00:07:53;100080.33;;;13.04;79.52
70916;BME280;58557;50.982;-3.222;2023-04-28T00:10:19;100079.52;;;14.30;75.24
70916;BME280;58557;50.982;-3.222;2023-04-28T00:12:45;100075.07;;;13.16;77.31
70916;BME280;58557;50.982;-3.222;2023-04-28T00:15:11;100081.41;;;14.77;73.47
70916;BME280;58557;50.982;-3.222;2023-04-28T00:17:37;100080.19;;;13.13;77.47
70916;BME280;58557;50.982;-3.222;2023-04-28T00:20:02;100079.54;;;13.28;78.45
70916;BME280;58557;50.982;-3.222;2023-04-28T00:22:28;100081.16;;;13.59;75.48
70916;BME280;58557;50.982;-3.222;2023-04-28T00:24:53;100080.23;;;13.06;78.35
70916;BME280;58557;50.982;-3.222;2023-04-28T00:27:19;100081.62;;;12.82;78.03
70916;BME280;58557;50.982;-3.222;2023-04-28T00:29:45;100077.38;;;13.94;75.61
70916;BME280;58557;50.982;-3.222;2023-04-28T00:32:11;100080.69;;;13.81;73.49
70916;BME280;58557;50.982;-3.222;2023-04-28T00:34:36;100078.40;;;13.48;76.43
70916;BME280;58557;50.982;-3.222;2023-04-28T00:37:02;100075.29;;;13.94;75.22
70916;BME280;58557;50.982;-3.222;2023-04-28T00:39:28;100080.02;;;13.52;76.73
70916;BME280;58557;50.982;-3.222;2023-04-28T00:41:54;100082.17;;;13.65;75.61
70916;BME280;58557;50.982;-3.222;2023-04-28T00:44:20;100085.11;;;14.34;75.37
70916;BME280;58557;50.982;-3.222;2023-04-28T00:46:46;100083.17;;;14.45;73.41
70916;BME280;58557;50.982;-3.222;2023-04-28T00:49:11;100087.25;;;14.02;74.75
70916;BME280;58557;50.982;-3.222;2023-04-28T00:51:37;100092.52;;;14.48;73.11
70916;BME280;58557;50.982;-3.222;2023-04-28T00:54:04;100090.39;;;14.35;72.45
70916;BME280;58557;50.982;-3.222;2023-04-28T00:56:28;100090.25;;;13.25;76.77
70916;BME280;58557;50.982;-3.222;2023-04-28T00:58:54;100095.18;;;15.01;70.04
70916;BME280;58557;50.982;-3.222;2023-04-28T01:01:20;100090.07;;;15.43;70.19
70916;BME280;58557;50.982;-3.222;2023-04-28T01:03:46;100094.92;;;14.60;72.05
70916;BME280;58557;50.982;-3.222;2023-04-28T01:06:12;100097.85;;;14.62;71.67
70916;BME280;58557;50.982;-3.222;2023-04-28T01:08:38;100093.92;;;15.25;69.69
70916;BME280;58557;50.982;-3.222;2023-04-28T01:11:03;100099.30;;;14.68;69.78
70916;BME280;58557;50.982;-3.222;2023-04-28T01:13:29;100096.87;;;14.96;69.02
70916;BME280;58557;50.982;-3.222;2023-04-28T01:15:55;100097.88;;;14.89;68.51
70916;BME280;58557;50.982;-3.222;2023-04-28T01:18:20;100099.94;;;15.58;67.60
70916;BME280;58557;50.982;-3.222;2023-04-28T01:20:46;100105.98;;;14.31;70.72
70916;BME280;58557;50.982;-3.222;2023-04-28T01:23:12;100108.44;;;15.44;68.24
70916;BME280;58557;50.982;-3.222;2023-04-28T01:25:37;100106.85;;;14.40;72.22
70916;BME280;58557;50.982;-3.222;2023-04-28T01:28:03;100108.52;;;13.61;71.68
70916;BME280;58557;50.982;-3.222;2023-04-28T01:30:29;100110.52;;;14.91;70.90
70916;BME280;58557;50.982;-3.222;2023-04-28T01:32:55;100110.91;;;15.04;69.77
70916;BME280;58557;50.982;-3.222;2023-04-28T01:35:21;100110.86;;;15.49;69.15
70916;BME280;58557;50.982;-3.222;2023-04-28T01:37:46;100109.57;;;15.04;68.82
70916;BME280;58557;50.982;-3.222;2023-04-28T01:40:12;100112.56;;;14.91;68.83
70916;BME280;58557;50.982;-3.222;2023-04-28T01:42:38;100110.40;;;14.67;68.61
70916;BME280;58557;50.982;-3.222;2023-04-28T01:45:04;100113.60;;;14.94;67.29
70916;BME280;58557;50.982;-3.222;2023-04-28T01:47:29;100112.24;;;15.14;65.70
70916;BME280;58557;50.982;-3.222;2023-04-28T01:49:55;100115.33;;;15.27;67.16
70916;BME280;58557;50.982;-3.222;2023-04-28T01:52:21;100115.21;;;15.43;67.24
70916;BME280;58557;50.982;-3.222;2023-04-28T01:54:47;100112.52;;;15.04;65.56
70916;BME280;58557;50.982;-3.222;2023-04-28T01:57:12;100113.40;;;15.42;65.91
70916;BME280;58557;50.982;-3.222;2023-04-28T01:59:38;100113.50;;;15.08;67.36
70916;BME280;58557;50.982;-3.222;2023-04-28T02:02:04;100115.16;;;14.68;69.99
70916;BME280;58557;50.982;-3.222;2023-04-28T02:04:29;100117.82;;;14.71;68.22
70916;BME280;58557;50.982;-3.222;2023-04-28T02:06:55;100120.16;;;13.61;71.31
70916;BME280;58557;50.982;-3.222;2023-04-28T02:09:21;100121.85;;;14.63;68.95
70916;BME280;58557;50.982;-3.222;2023-04-28T02:11:46;100127.22;;;15.60;65.92
70916;BME280;58557;50.982;-3.222;2023-04-28T02:14:12;100132.03;;;14.99;69.70
70916;BME280;58557;50.982;-3.222;2023-04-28T02:16:38;100131.96;;;14.75;68.28
70916;BME280;58557;50.982;-3.222;2023-04-28T02:19:03;100134.84;;;14.37;69.37
70916;BME280;58557;50.982;-3.222;2023-04-28T02:21:29;100127.78;;;15.25;67.44
70916;BME280;58557;50.982;-3.222;2023-04-28T02:23:55;100130.53;;;14.86;67.04
70916;BME280;58557;50.982;-3.222;2023-04-28T02:26:21;100129.44;;;14.63;68.08
70916;BME280;58557;50.982;-3.222;2023-04-28T02:28:46;100124.84;;;14.35;69.94
70916;BME280;58557;50.982;-3.222;2023-04-28T02:31:12;100128.33;;;16.40;64.20
70916;BME280;58557;50.982;-3.222;2023-04-28T02:33:38;100134.06;;;16.31;62.77
70916;BME280;58557;50.982;-3.222;2023-04-28T02:36:05;100134.84;;;16.29;62.26
70916;BME280;58557;50.982;-3.222;2023-04-28T02:38:29;100138.83;;;14.94;67.04
70916;BME280;58557;50.982;-3.222;2023-04-28T02:40:57;100140.18;;;15.07;66.06
70916;BME280;58557;50.982;-3.222;2023-04-28T02:43:21;100142.75;;;13.82;71.51
70916;BME280;58557;50.982;-3.222;2023-04-28T02:45:47;100138.39;;;14.18;70.15
70916;BME280;58557;50.982;-3.222;2023-04-28T02:48:13;100143.82;;;15.04;67.83
70916;BME280;58557;50.982;-3.222;2023-04-28T02:50:38;100143.91;;;14.62;68.85
70916;BME280;58557;50.982;-3.222;2023-04-28T02:53:04;100146.85;;;14.03;72.22
70916;BME280;58557;50.982;-3.222;2023-04-28T02:55:30;100143.57;;;14.34;70.86
70916;BME280;58557;50.982;-3.222;2023-04-28T02:57:55;100142.87;;;14.07;72.23
70916;BME280;58557;50.982;-3.222;2023-04-28T03:00:21;100145.20;;;13.96;72.29
70916;BME280;58557;50.982;-3.222;2023-04-28T03:02:47;100149.60;;;14.65;70.10
70916;BME280;58557;50.982;-3.222;2023-04-28T03:05:13;100146.89;;;14.03;71.95
70916;BME280;58557;50.982;-3.222;2023-04-28T03:07:39;100150.52;;;14.02;72.01
70916;BME280;58557;50.982;-3.222;2023-04-28T03:10:05;100152.71;;;13.46;74.01
70916;BME280;58557;50.982;-3.222;2023-04-28T03:12:30;100149.67;;;14.84;69.60
70916;BME280;58557;50.982;-3.222;2023-04-28T03:14:56;100157.81;;;13.36;72.94
70916;BME280;58557;50.982;-3.222;2023-04-28T03:17:22;100162.72;;;14.32;70.84
70916;BME280;58557;50.982;-3.222;2023-04-28T03:19:47;100163.99;;;13.17;75.40
70916;BME280;58557;50.982;-3.222;2023-04-28T03:22:13;100161.55;;;14.27;71.82
70916;BME280;58557;50.982;-3.222;2023-04-28T03:24:39;100160.81;;;14.32;70.02
70916;BME280;58557;50.982;-3.222;2023-04-28T03:27:05;100166.56;;;12.51;75.65
70916;BME280;58557;50.982;-3.222;2023-04-28T03:29:31;100164.60;;;13.84;74.70
70916;BME280;58557;50.982;-3.222;2023-04-28T03:31:56;100163.44;;;14.93;69.94
70916;BME280;58557;50.982;-3.222;2023-04-28T03:34:22;100167.61;;;15.35;68.74
70916;BME280;58557;50.982;-3.222;2023-04-28T03:36:48;100166.63;;;13.05;74.62
70916;BME280;58557;50.982;-3.222;2023-04-28T03:39:13;100168.83;;;12.38;77.62
70916;BME280;58557;50.982;-3.222;2023-04-28T03:41:39;100167.69;;;13.54;72.68
70916;BME280;58557;50.982;-3.222;2023-04-28T03:44:05;100170.71;;;12.52;77.56
70916;BME280;58557;50.982;-3.222;2023-04-28T03:46:31;100173.97;;;12.74;78.49
70916;BME280;58557;50.982;-3.222;2023-04-28T03:48:56;100175.65;;;11.95;79.89
70916;BME280;58557;50.982;-3.222;2023-04-28T03:51:22;100174.46;;;11.92;80.04
70916;BME280;58557;50.982;-3.222;2023-04-28T03:53:48;100176.00;;;12.15;78.72
70916;BME280;58557;50.982;-3.222;2023-04-28T03:56:14;100176.14;;;12.89;75.28
70916;BME280;58557;50.982;-3.222;2023-04-28T03:58:40;100179.02;;;13.03;75.94
70916;BME280;58557;50.982;-3.222;2023-04-28T04:01:05;100180.70;;;13.44;73.97
70916;BME280;58557;50.982;-3.222;2023-04-28T04:03:31;100180.86;;;13.67;70.57
70916;BME280;58557;50.982;-3.222;2023-04-28T04:05:57;100184.26;;;13.51;72.98
70916;BME280;58557;50.982;-3.222;2023-04-28T04:08:23;100178.45;;;11.57;79.56
70916;BME280;58557;50.982;-3.222;2023-04-28T04:10:48;100185.18;;;10.29;84.64
70916;BME280;58557;50.982;-3.222;2023-04-28T04:13:14;100189.01;;;11.26;81.27
70916;BME280;58557;50.982;-3.222;2023-04-28T04:15:40;100192.09;;;10.94;84.13
70916;BME280;58557;50.982;-3.222;2023-04-28T04:18:06;100191.48;;;11.74;81.14
70916;BME280;58557;50.982;-3.222;2023-04-28T04:20:32;100189.27;;;11.94;79.51
70916;BME280;58557;50.982;-3.222;2023-04-28T04:22:57;100190.66;;;12.37;77.63
70916;BME280;58557;50.982;-3.222;2023-04-28T04:25:23;100193.54;;;11.81;78.82
70916;BME280;58557;50.982;-3.222;2023-04-28T04:27:49;100193.79;;;11.92;78.01
70916;BME280;58557;50.982;-3.222;2023-04-28T04:30:15;100194.47;;;12.93;75.48
70916;BME280;58557;50.982;-3.222;2023-04-28T04:32:40;100192.11;;;12.09;76.84
70916;BME280;58557;50.982;-3.222;2023-04-28T04:35:07;100196.73;;;13.10;74.09
70916;BME280;58557;50.982;-3.222;2023-04-28T04:37:32;100191.83;;;11.85;77.73
70916;BME280;58557;50.982;-3.222;2023-04-28T04:39:58;100194.10;;;12.29;76.06
70916;BME280;58557;50.982;-3.222;2023-04-28T04:42:24;100202.31;;;13.08;73.95
70916;BME280;58557;50.982;-3.222;2023-04-28T04:44:49;100203.34;;;11.05;79.37
70916;BME280;58557;50.982;-3.222;2023-04-28T04:47:15;100205.14;;;11.41;78.41
70916;BME280;58557;50.982;-3.222;2023-04-28T04:49:41;100210.05;;;11.98;77.49
70916;BME280;58557;50.982;-3.222;2023-04-28T04:52:07;100217.44;;;11.80;77.39
70916;BME280;58557;50.982;-3.222;2023-04-28T04:54:32;100217.52;;;11.20;78.87
70916;BME280;58557;50.982;-3.222;2023-04-28T04:56:58;100220.50;;;11.45;79.05
70916;BME280;58557;50.982;-3.222;2023-04-28T04:59:24;100228.15;;;11.29;80.50
70916;BME280;58557;50.982;-3.222;2023-04-28T05:01:50;100230.15;;;11.14;80.44
70916;BME280;58557;50.982;-3.222;2023-04-28T05:04:16;100236.02;;;12.66;75.54
70916;BME280;58557;50.982;-3.222;2023-04-28T05:06:41;100233.53;;;12.24;76.29
70916;BME280;58557;50.982;-3.222;2023-04-28T05:09:07;100236.84;;;11.19;79.33
70916;BME280;58557;50.982;-3.222;2023-04-28T05:11:33;100245.39;;;12.38;76.98
70916;BME280;58557;50.982;-3.222;2023-04-28T05:13:59;100242.19;;;12.63;76.56
70916;BME280;58557;50.982;-3.222;2023-04-28T05:16:24;100247.22;;;12.57;78.34
70916;BME280;58557;50.982;-3.222;2023-04-28T05:18:52;100254.46;;;11.49;80.78
70916;BME280;58557;50.982;-3.222;2023-04-28T05:21:16;100256.88;;;11.80;78.47
70916;BME280;58557;50.982;-3.222;2023-04-28T05:23:42;100259.46;;;11.08;82.17
70916;BME280;58557;50.982;-3.222;2023-04-28T05:26:08;100259.48;;;12.01;79.47
70916;BME280;58557;50.982;-3.222;2023-04-28T05:28:33;100256.96;;;12.07;77.94
70916;BME280;58557;50.982;-3.222;2023-04-28T05:30:59;100262.21;;;11.89;81.16
70916;BME280;58557;50.982;-3.222;2023-04-28T05:33:25;100261.40;;;11.67;79.99
70916;BME280;58557;50.982;-3.222;2023-04-28T05:35:50;100267.59;;;11.82;81.13
70916;BME280;58557;50.982;-3.222;2023-04-28T05:38:16;100269.90;;;11.84;82.77
70916;BME280;58557;50.982;-3.222;2023-04-28T05:40:42;100277.01;;;11.46;82.71
70916;BME280;58557;50.982;-3.222;2023-04-28T05:43:08;100280.75;;;11.64;81.71
70916;BME280;58557;50.982;-3.222;2023-04-28T05:45:34;100290.64;;;11.73;79.45
70916;BME280;58557;50.982;-3.222;2023-04-28T05:47:59;100295.33;;;11.65;80.94
70916;BME280;58557;50.982;-3.222;2023-04-28T05:50:25;100294.57;;;12.01;79.43
70916;BME280;58557;50.982;-3.222;2023-04-28T05:52:52;100305.82;;;10.42;86.88
70916;BME280;58557;50.982;-3.222;2023-04-28T05:55:17;100310.71;;;10.93;87.93
70916;BME280;58557;50.982;-3.222;2023-04-28T05:57:43;100311.63;;;10.40;89.57
70916;BME280;58557;50.982;-3.222;2023-04-28T06:00:09;100317.81;;;11.89;83.07
70916;BME280;58557;50.982;-3.222;2023-04-28T06:02:34;100318.73;;;11.13;83.12
70916;BME280;58557;50.982;-3.222;2023-04-28T06:05:00;100320.57;;;12.21;82.16
70916;BME280;58557;50.982;-3.222;2023-04-28T06:07:26;100320.55;;;12.56;80.65
70916;BME280;58557;50.982;-3.222;2023-04-28T06:09:51;100327.45;;;13.80;75.36
70916;BME280;58557;50.982;-3.222;2023-04-28T06:12:17;100328.40;;;12.37;78.37
70916;BME280;58557;50.982;-3.222;2023-04-28T06:14:43;100332.81;;;11.62;80.51
70916;BME280;58557;50.982;-3.222;2023-04-28T06:17:09;100333.86;;;13.39;75.11
70916;BME280;58557;50.982;-3.222;2023-04-28T06:19:34;100338.39;;;12.48;78.49
70916;BME280;58557;50.982;-3.222;2023-04-28T06:22:00;100339.17;;;13.68;74.23
70916;BME280;58557;50.982;-3.222;2023-04-28T06:24:26;100342.19;;;11.54;79.03
70916;BME280;58557;50.982;-3.222;2023-04-28T06:26:52;100345.95;;;13.83;74.31
70916;BME280;58557;50.982;-3.222;2023-04-28T06:29:17;100344.59;;;11.72;78.87
70916;BME280;58557;50.982;-3.222;2023-04-28T06:31:43;100350.40;;;11.30;80.92
70916;BME280;58557;50.982;-3.222;2023-04-28T06:34:09;100356.38;;;11.43;82.09
70916;BME280;58557;50.982;-3.222;2023-04-28T06:36:40;100359.22;;;14.14;73.49
70916;BME280;58557;50.982;-3.222;2023-04-28T06:39:01;100360.83;;;13.18;74.65
70916;BME280;58557;50.982;-3.222;2023-04-28T06:41:26;100367.67;;;13.37;73.91
70916;BME280;58557;50.982;-3.222;2023-04-28T06:43:52;100373.29;;;14.67;68.88
70916;BME280;58557;50.982;-3.222;2023-04-28T06:46:18;100382.24;;;14.40;69.96
70916;BME280;58557;50.982;-3.222;2023-04-28T06:48:44;100383.94;;;12.14;75.56
70916;BME280;58557;50.982;-3.222;2023-04-28T06:51:09;100393.45;;;14.04;71.25
70916;BME280;58557;50.982;-3.222;2023-04-28T06:53:35;100398.93;;;14.31;71.44
70916;BME280;58557;50.982;-3.222;2023-04-28T06:56:01;100404.27;;;13.82;69.35
70916;BME280;58557;50.982;-3.222;2023-04-28T06:58:27;100407.31;;;12.24;74.28
70916;BME280;58557;50.982;-3.222;2023-04-28T07:00:52;100413.82;;;14.40;69.39
70916;BME280;58557;50.982;-3.222;2023-04-28T07:03:18;100412.64;;;13.55;70.81
70916;BME280;58557;50.982;-3.222;2023-04-28T07:05:44;100417.88;;;12.65;74.55
70916;BME280;58557;50.982;-3.222;2023-04-28T07:08:09;100418.93;;;13.08;73.10
70916;BME280;58557;50.982;-3.222;2023-04-28T07:10:35;100425.87;;;11.79;78.44
70916;BME280;58557;50.982;-3.222;2023-04-28T07:13:01;100427.30;;;13.45;73.20
70916;BME280;58557;50.982;-3.222;2023-04-28T07:15:27;100435.16;;;13.61;73.46
70916;BME280;58557;50.982;-3.222;2023-04-28T07:17:53;100438.33;;;12.18;75.68
70916;BME280;58557;50.982;-3.222;2023-04-28T07:20:18;100440.91;;;12.73;74.02
70916;BME280;58557;50.982;-3.222;2023-04-28T07:22:43;100440.09;;;13.04;72.10
70916;BME280;58557;50.982;-3.222;2023-04-28T07:25:09;100442.15;;;14.18;68.80
70916;BME280;58557;50.982;-3.222;2023-04-28T07:27:35;100442.47;;;13.32;69.90
70916;BME280;58557;50.982;-3.222;2023-04-28T07:30:00;100449.10;;;12.88;72.77
70916;BME280;58557;50.982;-3.222;2023-04-28T07:32:26;100452.04;;;14.85;67.64
70916;BME280;58557;50.982;-3.222;2023-04-28T07:34:52;100454.60;;;13.63;71.35
70916;BME280;58557;50.982;-3.222;2023-04-28T07:37:17;100456.45;;;14.23;68.69
70916;BME280;58557;50.982;-3.222;2023-04-28T07:39:43;100462.20;;;14.59;65.95
70916;BME280;58557;50.982;-3.222;2023-04-28T07:42:09;100466.92;;;12.70;72.14
70916;BME280;58557;50.982;-3.222;2023-04-28T07:44:35;100469.67;;;12.53;73.52
70916;BME280;58557;50.982;-3.222;2023-04-28T07:47:01;100469.32;;;13.67;69.51
70916;BME280;58557;50.982;-3.222;2023-04-28T07:49:27;100474.55;;;12.97;71.77
70916;BME280;58557;50.982;-3.222;2023-04-28T07:51:52;100476.40;;;13.31;72.85
70916;BME280;58557;50.982;-3.222;2023-04-28T07:54:18;100475.73;;;14.37;68.32
70916;BME280;58557;50.982;-3.222;2023-04-28T07:56:43;100473.00;;;13.70;69.99
70916;BME280;58557;50.982;-3.222;2023-04-28T07:59:08;100479.69;;;13.10;71.19
70916;BME280;58557;50.982;-3.222;2023-04-28T08:01:34;100483.24;;;12.70;73.81
70916;BME280;58557;50.982;-3.222;2023-04-28T08:04:00;100480.26;;;13.38;71.50
70916;BME280;58557;50.982;-3.222;2023-04-28T08:06:25;100485.03;;;13.94;67.84
70916;BME280;58557;50.982;-3.222;2023-04-28T08:08:51;100489.10;;;14.68;66.70
70916;BME280;58557;50.982;-3.222;2023-04-28T08:11:17;100490.21;;;13.71;68.96
70916;BME280;58557;50.982;-3.222;2023-04-28T08:13:42;100493.91;;;14.61;65.64
70916;BME280;58557;50.982;-3.222;2023-04-28T08:16:08;100498.18;;;15.02;64.16
70916;BME280;58557;50.982;-3.222;2023-04-28T08:18:34;100496.36;;;12.52;70.85
70916;BME280;58557;50.982;-3.222;2023-04-28T08:21:00;100495.21;;;14.39;69.12
70916;BME280;58557;50.982;-3.222;2023-04-28T08:23:30;100499.69;;;15.39;64.26
70916;BME280;58557;50.982;-3.222;2023-04-28T08:25:51;100503.26;;;14.94;67.84
70916;BME280;58557;50.982;-3.222;2023-04-28T08:28:17;100501.69;;;14.05;65.56
70916;BME280;58557;50.982;-3.222;2023-04-28T08:30:42;100506.51;;;15.78;62.24
70916;BME280;58557;50.982;-3.222;2023-04-28T08:33:08;100503.95;;;15.32;62.82
70916;BME280;58557;50.982;-3.222;2023-04-28T08:35:34;100504.75;;;15.34;64.98
70916;BME280;58557;50.982;-3.222;2023-04-28T08:37:59;100509.11;;;14.80;63.65
70916;BME280;58557;50.982;-3.222;2023-04-28T08:40:25;100510.73;;;13.96;66.30
70916;BME280;58557;50.982;-3.222;2023-04-28T08:42:51;100514.84;;;14.53;67.72
70916;BME280;58557;50.982;-3.222;2023-04-28T08:45:16;100518.97;;;15.04;65.96
70916;BME280;58557;50.982;-3.222;2023-04-28T08:47:42;100517.49;;;14.44;66.91
70916;BME280;58557;50.982;-3.222;2023-04-28T08:50:08;100524.10;;;15.71;64.27
70916;BME280;58557;50.982;-3.222;2023-04-28T08:52:34;100519.89;;;15.50;62.33
70916;BME280;58557;50.982;-3.222;2023-04-28T08:55:00;100529.71;;;15.14;63.09
70916;BME280;58557;50.982;-3.222;2023-04-28T08:57:26;100539.06;;;15.22;63.33
70916;BME280;58557;50.982;-3.222;2023-04-28T08:59:51;100541.19;;;14.65;64.60
70916;BME280;58557;50.982;-3.222;2023-04-28T09:02:16;100544.17;;;15.88;61.71
70916;BME280;58557;50.982;-3.222;2023-04-28T09:04:42;100540.69;;;16.25;60.07
70916;BME280;58557;50.982;-3.222;2023-04-28T09:07:10;100547.98;;;16.82;59.16
70916;BME280;58557;50.982;-3.222;2023-04-28T09:09:33;100553.71;;;15.59;61.13
70916;BME280;58557;50.982;-3.222;2023-04-28T09:12:00;100559.24;;;15.73;60.85
70916;BME280;58557;50.982;-3.222;2023-04-28T09:14:25;100565.83;;;15.89;60.27
70916;BME280;58557;50.982;-3.222;2023-04-28T09:16:51;100571.35;;;14.96;62.40
70916;BME280;58557;50.982;-3.222;2023-04-28T09:19:16;100574.40;;;16.64;60.89
70916;BME280;58557;50.982;-3.222;2023-04-28T09:21:47;100580.22;;;16.28;59.38
70916;BME280;58557;50.982;-3.222;2023-04-28T09:24:07;100586.54;;;15.35;62.30
70916;BME280;58557;50.982;-3.222;2023-04-28T09:31:25;100598.59;;;16.85;58.54
70916;BME280;58557;50.982;-3.222;2023-04-28T09:33:56;100606.64;;;15.75;60.35
70916;BME280;58557;50.982;-3.222;2023-04-28T09:36:25;100614.28;;;15.81;60.71
70916;BME280;58557;50.982;-3.222;2023-04-28T09:38:43;100615.05;;;16.49;58.45
70916;BME280;58557;50.982;-3.222;2023-04-28T09:41:07;100617.15;;;16.34;58.88
70916;BME280;58557;50.982;-3.222;2023-04-28T09:43:34;100626.78;;;14.79;61.39
70916;BME280;58557;50.982;-3.222;2023-04-28T09:46:01;100623.22;;;14.97;62.96
70916;BME280;58557;50.982;-3.222;2023-04-28T09:48:31;100628.37;;;14.69;62.37
70916;BME280;58557;50.982;-3.222;2023-04-28T09:50:50;100632.73;;;15.95;59.13
70916;BME280;58557;50.982;-3.222;2023-04-28T09:53:16;100634.79;;;15.91;58.87
70916;BME280;58557;50.982;-3.222;2023-04-28T09:55:43;100640.58;;;15.61;59.77
70916;BME280;58557;50.982;-3.222;2023-04-28T09:58:07;100641.24;;;15.24;60.03
70916;BME280;58557;50.982;-3.222;2023-04-28T10:00:33;100641.42;;;15.26;60.19
70916;BME280;58557;50.982;-3.222;2023-04-28T10:02:59;100639.45;;;14.53;61.72
70916;BME280;58557;50.982;-3.222;2023-04-28T10:05:24;100643.70;;;14.92;62.89
70916;BME280;58557;50.982;-3.222;2023-04-28T10:07:50;100648.39;;;14.83;61.73
70916;BME280;58557;50.982;-3.222;2023-04-28T10:10:16;100652.89;;;16.27;57.49
70916;BME280;58557;50.982;-3.222;2023-04-28T10:12:41;100650.60;;;16.24;57.81
70916;BME280;58557;50.982;-3.222;2023-04-28T10:15:09;100655.95;;;16.17;60.96
70916;BME280;58557;50.982;-3.222;2023-04-28T10:17:33;100655.43;;;16.83;58.77
70916;BME280;58557;50.982;-3.222;2023-04-28T10:19:59;100655.32;;;17.42;54.14
70916;BME280;58557;50.982;-3.222;2023-04-28T10:22:36;100657.16;;;15.31;58.78
70916;BME280;58557;50.982;-3.222;2023-04-28T10:25:05;100659.47;;;15.36;59.51
70916;BME280;58557;50.982;-3.222;2023-04-28T10:27:16;100659.31;;;13.90;64.88
70916;BME280;58557;50.982;-3.222;2023-04-28T10:29:41;100659.93;;;13.98;66.89
70916;BME280;58557;50.982;-3.222;2023-04-28T10:32:17;100663.85;;;16.25;60.32
70916;BME280;58557;50.982;-3.222;2023-04-28T10:34:32;100664.46;;;16.87;55.96
70916;BME280;58557;50.982;-3.222;2023-04-28T10:36:58;100669.34;;;15.64;57.87
70916;BME280;58557;50.982;-3.222;2023-04-28T10:39:23;100677.86;;;16.63;56.11
70916;BME280;58557;50.982;-3.222;2023-04-28T10:41:49;100679.54;;;16.22;60.53
70916;BME280;58557;50.982;-3.222;2023-04-28T10:49:06;100683.52;;;17.12;56.40
70916;BME280;58557;50.982;-3.222;2023-04-28T10:51:32;100681.01;;;17.14;54.96
70916;BME280;58557;50.982;-3.222;2023-04-28T10:54:08;100687.99;;;16.32;57.20
70916;BME280;58557;50.982;-3.222;2023-04-28T10:56:24;100692.93;;;15.58;59.52
70916;BME280;58557;50.982;-3.222;2023-04-28T10:58:50;100691.43;;;15.23;61.12
70916;BME280;58557;50.982;-3.222;2023-04-28T11:01:24;100693.52;;;15.47;61.80
70916;BME280;58557;50.982;-3.222;2023-04-28T11:03:47;100695.73;;;15.58;62.30
70916;BME280;58557;50.982;-3.222;2023-04-28T11:06:17;100698.38;;;15.62;62.54
70916;BME280;58557;50.982;-3.222;2023-04-28T11:08:31;100700.02;;;16.38;60.88
70916;BME280;58557;50.982;-3.222;2023-04-28T11:11:15;100698.70;;;14.15;64.73
70916;BME280;58557;50.982;-3.222;2023-04-28T11:13:25;100701.56;;;15.47;64.32
70916;BME280;58557;50.982;-3.222;2023-04-28T11:18:19;100704.10;;;15.63;61.84
70916;BME280;58557;50.982;-3.222;2023-04-28T11:20:40;100699.71;;;14.92;63.85
70916;BME280;58557;50.982;-3.222;2023-04-28T11:23:06;100702.67;;;15.06;64.39
70916;BME280;58557;50.982;-3.222;2023-04-28T11:28:02;100711.00;;;15.66;62.72
70916;BME280;58557;50.982;-3.222;2023-04-28T11:30:22;100716.87;;;16.14;62.27
70916;BME280;58557;50.982;-3.222;2023-04-28T11:32:48;100718.45;;;16.25;60.83
70916;BME280;58557;50.982;-3.222;2023-04-28T11:35:13;100719.33;;;15.84;61.89
70916;BME280;58557;50.982;-3.222;2023-04-28T11:37:38;100719.72;;;14.87;65.43
70916;BME280;58557;50.982;-3.222;2023-04-28T11:40:09;100720.51;;;15.02;65.08
70916;BME280;58557;50.982;-3.222;2023-04-28T11:42:29;100721.23;;;15.14;63.08
70916;BME280;58557;50.982;-3.222;2023-04-28T11:44:55;100718.19;;;15.55;63.04
70916;BME280;58557;50.982;-3.222;2023-04-28T11:47:30;100718.49;;;14.54;63.22
70916;BME280;58557;50.982;-3.222;2023-04-28T11:49:46;100721.63;;;14.31;65.93
70916;BME280;58557;50.982;-3.222;2023-04-28T11:52:13;100724.21;;;13.82;66.33
70916;BME280;58557;50.982;-3.222;2023-04-28T11:54:38;100721.07;;;14.79;63.50
70916;BME280;58557;50.982;-3.222;2023-04-28T11:57:04;100729.53;;;14.52;66.33
70916;BME280;58557;50.982;-3.222;2023-04-28T11:59:31;100731.06;;;15.77;62.46
70916;BME280;58557;50.982;-3.222;2023-04-28T12:01:58;100736.86;;;15.88;60.34
70916;BME280;58557;50.982;-3.222;2023-04-28T12:04:26;100734.31;;;17.34;58.50
70916;BME280;58557;50.982;-3.222;2023-04-28T12:06:46;100736.28;;;16.76;57.76
70916;BME280;58557;50.982;-3.222;2023-04-28T12:09:16;100739.31;;;16.88;55.97
70916;BME280;58557;50.982;-3.222;2023-04-28T12:11:37;100740.89;;;15.31;61.57
70916;BME280;58557;50.982;-3.222;2023-04-28T12:14:04;100743.04;;;13.75;64.71
70916;BME280;58557;50.982;-3.222;2023-04-28T12:16:37;100749.13;;;13.95;66.56
70916;BME280;58557;50.982;-3.222;2023-04-28T12:18:58;100746.56;;;15.03;61.77
70916;BME280;58557;50.982;-3.222;2023-04-28T12:21:20;100745.07;;;14.53;62.52
70916;BME280;58557;50.982;-3.222;2023-04-28T12:23:44;100750.46;;;17.09;56.60
70916;BME280;58557;50.982;-3.222;2023-04-28T12:26:10;100753.10;;;16.30;58.02
70916;BME280;58557;50.982;-3.222;2023-04-28T12:28:36;100755.34;;;17.20;55.88
70916;BME280;58557;50.982;-3.222;2023-04-28T12:31:03;100756.07;;;17.53;54.28
70916;BME280;58557;50.982;-3.222;2023-04-28T12:33:27;100755.55;;;15.94;58.32
70916;BME280;58557;50.982;-3.222;2023-04-28T12:35:52;100759.71;;;15.58;56.77
70916;BME280;58557;50.982;-3.222;2023-04-28T12:38:18;100755.74;;;16.66;57.51
70916;BME280;58557;50.982;-3.222;2023-04-28T12:40:43;100754.03;;;16.55;55.80
70916;BME280;58557;50.982;-3.222;2023-04-28T12:43:09;100748.63;;;15.80;58.66
70916;BME280;58557;50.982;-3.222;2023-04-28T12:45:34;100753.07;;;16.57;59.06